sensor_id;sensor_type;location;lat;lon;timestamp;temperature;humidity
21787;DHT22;11055;50.870;4.316;2022-09-02T00:01:37;21.80;91.50
21787;DHT22;11055;50.870;4.316;2022-09-02T00:04:07;21.90;91.40
21787;DHT22;11055;50.870;4.316;2022-09-02T00:06:33;21.90;91.50
21787;DHT22;11055;50.870;4.316;2022-09-02T00:08:59;21.80;91.70
21787;DHT22;11055;50.870;4.316;2022-09-02T00:11:26;21.80;91.70
21787;DHT22;11055;50.870;4.316;2022-09-02T00:13:52;21.80;91.80
21787;DHT22;11055;50.870;4.316;2022-09-02T00:16:18;21.90;91.60
21787;DHT22;11055;50.870;4.316;2022-09-02T00:18:44;21.90;91.70
21787;DHT22;11055;50.870;4.316;2022-09-02T00:21:10;21.80;91.50
21787;DHT22;11055;50.870;4.316;2022-09-02T00:23:38;21.80;91.70
21787;DHT22;11055;50.870;4.316;2022-09-02T00:26:03;21.70;91.60
21787;DHT22;11055;50.870;4.316;2022-09-02T00:28:29;21.60;91.60
21787;DHT22;11055;50.870;4.316;2022-09-02T00:30:55;21.70;91.90
21787;DHT22;11055;50.870;4.316;2022-09-02T00:33:20;21.70;92.00
21787;DHT22;11055;50.870;4.316;2022-09-02T00:35:46;21.70;91.80
21787;DHT22;11055;50.870;4.316;2022-09-02T00:38:11;21.60;91.90
21787;DHT22;11055;50.870;4.316;2022-09-02T00:40:37;21.70;92.00
21787;DHT22;11055;50.870;4.316;2022-09-02T00:43:06;21.60;92.00
21787;DHT22;11055;50.870;4.316;2022-09-02T00:45:32;21.50;92.20
21787;DHT22;11055;50.870;4.316;2022-09-02T00:47:58;21.50;92.30
21787;DHT22;11055;50.870;4.316;2022-09-02T00:50:29;21.40;92.30
21787;DHT22;11055;50.870;4.316;2022-09-02T00:52:58;21.50;92.40
21787;DHT22;11055;50.870;4.316;2022-09-02T00:55:25;21.40;92.50
21787;DHT22;11055;50.870;4.316;2022-09-02T00:57:56;21.40;92.80
21787;DHT22;11055;50.870;4.316;2022-09-02T01:00:29;21.40;92.60
21787;DHT22;11055;50.870;4.316;2022-09-02T01:02:56;21.40;92.60
21787;DHT22;11055;50.870;4.316;2022-09-02T01:05:23;21.30;92.80
21787;DHT22;11055;50.870;4.316;2022-09-02T01:07:50;21.30;92.80
21787;DHT22;11055;50.870;4.316;2022-09-02T01:10:18;21.40;92.80
21787;DHT22;11055;50.870;4.316;2022-09-02T01:12:44;21.30;92.90
21787;DHT22;11055;50.870;4.316;2022-09-02T01:15:10;21.40;92.80
21787;DHT22;11055;50.870;4.316;2022-09-02T01:17:40;21.30;92.90
21787;DHT22;11055;50.870;4.316;2022-09-02T01:20:09;21.20;93.20
21787;DHT22;11055;50.870;4.316;2022-09-02T01:22:36;21.20;93.00
21787;DHT22;11055;50.870;4.316;2022-09-02T01:25:05;21.30;93.10
21787;DHT22;11055;50.870;4.316;2022-09-02T01:27:31;21.30;93.00
21787;DHT22;11055;50.870;4.316;2022-09-02T01:29:58;21.20;93.20
21787;DHT22;11055;50.870;4.316;2022-09-02T01:32:25;21.10;93.50
21787;DHT22;11055;50.870;4.316;2022-09-02T01:34:51;21.00;93.60
21787;DHT22;11055;50.870;4.316;2022-09-02T01:37:17;21.00;93.60
21787;DHT22;11055;50.870;4.316;2022-09-02T01:39:43;21.10;93.50
21787;DHT22;11055;50.870;4.316;2022-09-02T01:42:10;21.10;93.70
21787;DHT22;11055;50.870;4.316;2022-09-02T01:44:36;20.90;93.90
21787;DHT22;11055;50.870;4.316;2022-09-02T01:47:19;20.90;94.20
21787;DHT22;11055;50.870;4.316;2022-09-02T01:49:45;20.80;94.20
21787;DHT22;11055;50.870;4.316;2022-09-02T01:52:11;20.80;94.40
21787;DHT22;11055;50.870;4.316;2022-09-02T01:54:37;20.90;94.40
21787;DHT22;11055;50.870;4.316;2022-09-02T01:57:03;20.80;94.40
21787;DHT22;11055;50.870;4.316;2022-09-02T01:59:28;20.90;94.60
21787;DHT22;11055;50.870;4.316;2022-09-02T02:01:54;20.90;94.50
21787;DHT22;11055;50.870;4.316;2022-09-02T02:04:19;20.90;94.60
21787;DHT22;11055;50.870;4.316;2022-09-02T02:06:47;20.90;94.60
21787;DHT22;11055;50.870;4.316;2022-09-02T02:09:12;20.90;94.70
21787;DHT22;11055;50.870;4.316;2022-09-02T02:11:38;20.80;94.90
21787;DHT22;11055;50.870;4.316;2022-09-02T02:14:04;20.80;94.90
21787;DHT22;11055;50.870;4.316;2022-09-02T02:16:30;20.80;95.00
21787;DHT22;11055;50.870;4.316;2022-09-02T02:18:56;20.70;95.10
21787;DHT22;11055;50.870;4.316;2022-09-02T02:21:21;20.70;95.10
21787;DHT22;11055;50.870;4.316;2022-09-02T02:23:47;20.70;95.20
21787;DHT22;11055;50.870;4.316;2022-09-02T02:26:12;20.60;95.50
21787;DHT22;11055;50.870;4.316;2022-09-02T02:28:38;20.70;95.60
21787;DHT22;11055;50.870;4.316;2022-09-02T02:31:04;20.70;95.30
21787;DHT22;11055;50.870;4.316;2022-09-02T02:33:30;20.70;95.60
21787;DHT22;11055;50.870;4.316;2022-09-02T02:35:55;20.60;95.50
21787;DHT22;11055;50.870;4.316;2022-09-02T02:38:21;20.50;95.70
21787;DHT22;11055;50.870;4.316;2022-09-02T02:40:47;20.60;95.70
21787;DHT22;11055;50.870;4.316;2022-09-02T02:43:12;20.70;95.80
21787;DHT22;11055;50.870;4.316;2022-09-02T02:45:38;20.80;95.60
21787;DHT22;11055;50.870;4.316;2022-09-02T02:48:04;20.70;95.90
21787;DHT22;11055;50.870;4.316;2022-09-02T02:50:30;20.60;96.10
21787;DHT22;11055;50.870;4.316;2022-09-02T02:52:55;20.50;96.40
21787;DHT22;11055;50.870;4.316;2022-09-02T02:55:21;20.50;96.30
21787;DHT22;11055;50.870;4.316;2022-09-02T02:57:48;20.50;96.50
21787;DHT22;11055;50.870;4.316;2022-09-02T03:00:15;20.60;96.40
21787;DHT22;11055;50.870;4.316;2022-09-02T03:02:41;20.50;96.70
21787;DHT22;11055;50.870;4.316;2022-09-02T03:05:07;20.50;97.00
21787;DHT22;11055;50.870;4.316;2022-09-02T03:07:33;20.50;97.00
21787;DHT22;11055;50.870;4.316;2022-09-02T03:09:59;20.50;97.00
21787;DHT22;11055;50.870;4.316;2022-09-02T03:12:24;20.50;97.10
21787;DHT22;11055;50.870;4.316;2022-09-02T03:14:50;20.50;97.30
21787;DHT22;11055;50.870;4.316;2022-09-02T03:17:16;20.40;97.30
21787;DHT22;11055;50.870;4.316;2022-09-02T03:19:42;20.40;97.70
21787;DHT22;11055;50.870;4.316;2022-09-02T03:22:07;20.40;97.70
21787;DHT22;11055;50.870;4.316;2022-09-02T03:24:36;20.40;97.90
21787;DHT22;11055;50.870;4.316;2022-09-02T03:27:02;20.30;98.10
21787;DHT22;11055;50.870;4.316;2022-09-02T03:29:27;20.30;97.90
21787;DHT22;11055;50.870;4.316;2022-09-02T03:31:53;20.20;98.20
21787;DHT22;11055;50.870;4.316;2022-09-02T03:34:18;20.40;98.40
21787;DHT22;11055;50.870;4.316;2022-09-02T03:36:44;20.30;98.50
21787;DHT22;11055;50.870;4.316;2022-09-02T03:39:10;20.30;98.60
21787;DHT22;11055;50.870;4.316;2022-09-02T03:41:36;20.20;98.70
21787;DHT22;11055;50.870;4.316;2022-09-02T03:44:02;20.20;98.80
21787;DHT22;11055;50.870;4.316;2022-09-02T03:46:28;20.20;99.00
21787;DHT22;11055;50.870;4.316;2022-09-02T03:48:53;20.10;99.10
21787;DHT22;11055;50.870;4.316;2022-09-02T03:51:20;20.10;99.20
21787;DHT22;11055;50.870;4.316;2022-09-02T03:53:46;20.00;99.30
21787;DHT22;11055;50.870;4.316;2022-09-02T03:56:12;20.00;99.80
21787;DHT22;11055;50.870;4.316;2022-09-02T03:58:38;20.10;99.60
21787;DHT22;11055;50.870;4.316;2022-09-02T04:01:04;20.00;99.80
21787;DHT22;11055;50.870;4.316;2022-09-02T04:03:30;20.00;99.90
21787;DHT22;11055;50.870;4.316;2022-09-02T04:05:56;19.90;99.90
21787;DHT22;11055;50.870;4.316;2022-09-02T04:08:21;19.90;99.90
21787;DHT22;11055;50.870;4.316;2022-09-02T04:10:47;19.90;99.90
21787;DHT22;11055;50.870;4.316;2022-09-02T04:13:13;19.80;99.90
21787;DHT22;11055;50.870;4.316;2022-09-02T04:15:39;19.80;99.90
21787;DHT22;11055;50.870;4.316;2022-09-02T04:18:07;19.80;99.90
21787;DHT22;11055;50.870;4.316;2022-09-02T04:20:32;19.80;99.90
21787;DHT22;11055;50.870;4.316;2022-09-02T04:22:58;19.80;99.90
21787;DHT22;11055;50.870;4.316;2022-09-02T04:25:24;19.80;99.90
21787;DHT22;11055;50.870;4.316;2022-09-02T04:27:49;19.80;99.90
21787;DHT22;11055;50.870;4.316;2022-09-02T04:30:15;19.80;99.90
21787;DHT22;11055;50.870;4.316;2022-09-02T04:32:41;19.70;99.90
21787;DHT22;11055;50.870;4.316;2022-09-02T04:35:07;19.60;99.90
21787;DHT22;11055;50.870;4.316;2022-09-02T04:37:32;19.60;99.90
21787;DHT22;11055;50.870;4.316;2022-09-02T04:39:58;19.70;99.90
21787;DHT22;11055;50.870;4.316;2022-09-02T04:42:23;19.70;99.90
21787;DHT22;11055;50.870;4.316;2022-09-02T04:44:50;19.60;99.90
21787;DHT22;11055;50.870;4.316;2022-09-02T04:47:16;19.70;99.90
21787;DHT22;11055;50.870;4.316;2022-09-02T04:49:42;19.50;99.90
21787;DHT22;11055;50.870;4.316;2022-09-02T04:52:08;19.60;99.90
21787;DHT22;11055;50.870;4.316;2022-09-02T04:54:35;19.60;99.90
21787;DHT22;11055;50.870;4.316;2022-09-02T04:57:00;19.60;99.90
21787;DHT22;11055;50.870;4.316;2022-09-02T04:59:26;19.60;99.90
21787;DHT22;11055;50.870;4.316;2022-09-02T05:01:51;19.60;99.90
21787;DHT22;11055;50.870;4.316;2022-09-02T05:04:18;19.60;99.90
21787;DHT22;11055;50.870;4.316;2022-09-02T05:06:44;19.70;99.90
21787;DHT22;11055;50.870;4.316;2022-09-02T05:09:11;19.60;99.90
21787;DHT22;11055;50.870;4.316;2022-09-02T05:11:37;19.70;99.90
21787;DHT22;11055;50.870;4.316;2022-09-02T05:14:05;19.70;99.90
21787;DHT22;11055;50.870;4.316;2022-09-02T05:16:32;19.70;99.90
21787;DHT22;11055;50.870;4.316;2022-09-02T05:19:00;19.60;99.90
21787;DHT22;11055;50.870;4.316;2022-09-02T05:21:27;19.60;99.90
21787;DHT22;11055;50.870;4.316;2022-09-02T05:23:55;19.70;99.90
21787;DHT22;11055;50.870;4.316;2022-09-02T05:26:21;19.70;99.90
21787;DHT22;11055;50.870;4.316;2022-09-02T05:28:47;19.70;99.90
21787;DHT22;11055;50.870;4.316;2022-09-02T05:31:14;19.80;99.90
21787;DHT22;11055;50.870;4.316;2022-09-02T05:33:40;19.70;99.90
21787;DHT22;11055;50.870;4.316;2022-09-02T05:36:10;19.70;99.90
21787;DHT22;11055;50.870;4.316;2022-09-02T05:38:43;19.80;99.90
21787;DHT22;11055;50.870;4.316;2022-09-02T05:41:10;19.80;99.90
21787;DHT22;11055;50.870;4.316;2022-09-02T05:43:37;19.80;99.90
21787;DHT22;11055;50.870;4.316;2022-09-02T05:46:07;19.70;99.90
21787;DHT22;11055;50.870;4.316;2022-09-02T05:48:37;19.80;99.90
21787;DHT22;11055;50.870;4.316;2022-09-02T05:51:21;19.80;99.90
21787;DHT22;11055;50.870;4.316;2022-09-02T05:53:47;19.80;99.90
21787;DHT22;11055;50.870;4.316;2022-09-02T05:56:12;19.80;99.90
21787;DHT22;11055;50.870;4.316;2022-09-02T05:58:38;19.80;99.90
21787;DHT22;11055;50.870;4.316;2022-09-02T06:01:11;19.80;99.90
21787;DHT22;11055;50.870;4.316;2022-09-02T06:03:36;19.90;99.90
21787;DHT22;11055;50.870;4.316;2022-09-02T06:06:02;20.00;99.90
21787;DHT22;11055;50.870;4.316;2022-09-02T06:08:28;19.90;99.90
21787;DHT22;11055;50.870;4.316;2022-09-02T06:10:54;20.00;99.90
21787;DHT22;11055;50.870;4.316;2022-09-02T06:13:19;20.00;99.90
21787;DHT22;11055;50.870;4.316;2022-09-02T06:15:49;20.10;99.90
21787;DHT22;11055;50.870;4.316;2022-09-02T06:18:15;20.10;99.90
21787;DHT22;11055;50.870;4.316;2022-09-02T06:20:42;20.10;99.90
21787;DHT22;11055;50.870;4.316;2022-09-02T06:23:08;20.30;99.90
21787;DHT22;11055;50.870;4.316;2022-09-02T06:25:37;20.10;99.90
21787;DHT22;11055;50.870;4.316;2022-09-02T06:28:03;20.20;99.90
21787;DHT22;11055;50.870;4.316;2022-09-02T06:30:29;20.40;99.90
21787;DHT22;11055;50.870;4.316;2022-09-02T06:32:55;20.40;99.90
21787;DHT22;11055;50.870;4.316;2022-09-02T06:35:21;20.40;99.90
21787;DHT22;11055;50.870;4.316;2022-09-02T06:37:46;20.40;99.90
21787;DHT22;11055;50.870;4.316;2022-09-02T06:40:12;20.50;99.90
21787;DHT22;11055;50.870;4.316;2022-09-02T06:42:38;20.50;99.90
21787;DHT22;11055;50.870;4.316;2022-09-02T06:45:04;20.50;99.90
21787;DHT22;11055;50.870;4.316;2022-09-02T06:47:29;20.50;99.90
21787;DHT22;11055;50.870;4.316;2022-09-02T06:49:56;20.60;99.90
21787;DHT22;11055;50.870;4.316;2022-09-02T06:52:21;20.60;99.90
21787;DHT22;11055;50.870;4.316;2022-09-02T06:54:47;20.60;99.90
21787;DHT22;11055;50.870;4.316;2022-09-02T06:57:14;20.70;99.90
21787;DHT22;11055;50.870;4.316;2022-09-02T06:59:40;20.70;99.90
21787;DHT22;11055;50.870;4.316;2022-09-02T07:02:06;20.40;99.90
21787;DHT22;11055;50.870;4.316;2022-09-02T07:04:31;20.70;99.90
21787;DHT22;11055;50.870;4.316;2022-09-02T07:07:15;20.80;99.90
21787;DHT22;11055;50.870;4.316;2022-09-02T07:09:41;21.00;99.90
21787;DHT22;11055;50.870;4.316;2022-09-02T07:12:07;20.90;99.90
21787;DHT22;11055;50.870;4.316;2022-09-02T07:14:40;21.00;99.90
21787;DHT22;11055;50.870;4.316;2022-09-02T07:17:07;21.00;99.90
21787;DHT22;11055;50.870;4.316;2022-09-02T07:19:33;21.10;99.90
21787;DHT22;11055;50.870;4.316;2022-09-02T07:21:58;21.10;99.90
21787;DHT22;11055;50.870;4.316;2022-09-02T07:24:24;21.20;99.90
21787;DHT22;11055;50.870;4.316;2022-09-02T07:26:49;21.10;99.90
21787;DHT22;11055;50.870;4.316;2022-09-02T07:29:15;21.20;99.90
21787;DHT22;11055;50.870;4.316;2022-09-02T07:31:42;21.30;99.90
21787;DHT22;11055;50.870;4.316;2022-09-02T07:34:08;21.30;99.90
21787;DHT22;11055;50.870;4.316;2022-09-02T07:36:36;21.40;99.90
21787;DHT22;11055;50.870;4.316;2022-09-02T07:39:06;21.50;99.90
21787;DHT22;11055;50.870;4.316;2022-09-02T07:41:31;21.60;99.90
21787;DHT22;11055;50.870;4.316;2022-09-02T07:43:57;21.70;99.90
21787;DHT22;11055;50.870;4.316;2022-09-02T07:46:23;21.80;99.90
21787;DHT22;11055;50.870;4.316;2022-09-02T07:48:49;22.00;99.90
21787;DHT22;11055;50.870;4.316;2022-09-02T07:51:15;22.10;99.90
21787;DHT22;11055;50.870;4.316;2022-09-02T07:53:41;22.30;99.90
21787;DHT22;11055;50.870;4.316;2022-09-02T07:56:08;22.30;99.90
21787;DHT22;11055;50.870;4.316;2022-09-02T07:58:33;22.50;99.90
21787;DHT22;11055;50.870;4.316;2022-09-02T08:00:59;22.60;99.90
21787;DHT22;11055;50.870;4.316;2022-09-02T08:03:25;22.70;99.90
21787;DHT22;11055;50.870;4.316;2022-09-02T08:05:51;22.80;99.90
21787;DHT22;11055;50.870;4.316;2022-09-02T08:08:18;22.90;99.90
21787;DHT22;11055;50.870;4.316;2022-09-02T08:10:47;23.10;99.90
21787;DHT22;11055;50.870;4.316;2022-09-02T08:13:13;23.10;99.90
21787;DHT22;11055;50.870;4.316;2022-09-02T08:15:39;23.20;99.90
21787;DHT22;11055;50.870;4.316;2022-09-02T08:18:05;23.20;99.90
21787;DHT22;11055;50.870;4.316;2022-09-02T08:20:31;23.20;99.90
21787;DHT22;11055;50.870;4.316;2022-09-02T08:22:57;23.10;99.90
21787;DHT22;11055;50.870;4.316;2022-09-02T08:25:23;23.30;99.90
21787;DHT22;11055;50.870;4.316;2022-09-02T08:27:49;23.30;99.90
21787;DHT22;11055;50.870;4.316;2022-09-02T08:30:15;23.40;99.90
21787;DHT22;11055;50.870;4.316;2022-09-02T08:32:40;23.30;99.90
21787;DHT22;11055;50.870;4.316;2022-09-02T08:35:07;23.20;99.90
21787;DHT22;11055;50.870;4.316;2022-09-02T08:37:33;23.40;99.90
21787;DHT22;11055;50.870;4.316;2022-09-02T08:39:59;23.30;99.90
21787;DHT22;11055;50.870;4.316;2022-09-02T08:42:34;23.30;99.90
21787;DHT22;11055;50.870;4.316;2022-09-02T08:45:07;23.40;99.90
21787;DHT22;11055;50.870;4.316;2022-09-02T08:47:35;23.30;99.90
21787;DHT22;11055;50.870;4.316;2022-09-02T08:50:03;23.30;99.90
21787;DHT22;11055;50.870;4.316;2022-09-02T08:55:17;23.50;99.90
21787;DHT22;11055;50.870;4.316;2022-09-02T08:57:43;23.50;99.90
21787;DHT22;11055;50.870;4.316;2022-09-02T09:00:10;23.50;99.90
21787;DHT22;11055;50.870;4.316;2022-09-02T09:05:26;23.40;99.90
21787;DHT22;11055;50.870;4.316;2022-09-02T09:15:39;23.60;99.90
21787;DHT22;11055;50.870;4.316;2022-09-02T09:18:11;23.60;99.90
21787;DHT22;11055;50.870;4.316;2022-09-02T09:20:39;23.60;99.90
21787;DHT22;11055;50.870;4.316;2022-09-02T09:25:46;23.50;99.90
21787;DHT22;11055;50.870;4.316;2022-09-02T09:28:12;23.60;99.90
21787;DHT22;11055;50.870;4.316;2022-09-02T09:30:38;23.60;99.90
21787;DHT22;11055;50.870;4.316;2022-09-02T09:33:04;23.60;99.90
21787;DHT22;11055;50.870;4.316;2022-09-02T09:35:46;23.70;99.90
21787;DHT22;11055;50.870;4.316;2022-09-02T09:38:12;23.70;99.90
21787;DHT22;11055;50.870;4.316;2022-09-02T09:40:38;23.80;99.90
21787;DHT22;11055;50.870;4.316;2022-09-02T09:45:47;23.90;99.90
21787;DHT22;11055;50.870;4.316;2022-09-02T09:50:43;23.90;99.90
21787;DHT22;11055;50.870;4.316;2022-09-02T09:55:57;23.90;99.90
21787;DHT22;11055;50.870;4.316;2022-09-02T09:58:29;23.90;99.90
21787;DHT22;11055;50.870;4.316;2022-09-02T10:01:09;24.00;99.90
21787;DHT22;11055;50.870;4.316;2022-09-02T10:03:35;24.10;99.90
21787;DHT22;11055;50.870;4.316;2022-09-02T10:06:24;24.10;99.90
21787;DHT22;11055;50.870;4.316;2022-09-02T10:08:56;24.10;99.90
21787;DHT22;11055;50.870;4.316;2022-09-02T10:11:24;24.30;99.90
21787;DHT22;11055;50.870;4.316;2022-09-02T10:13:50;24.30;99.90
21787;DHT22;11055;50.870;4.316;2022-09-02T10:16:24;24.40;99.90
21787;DHT22;11055;50.870;4.316;2022-09-02T10:27:06;24.40;99.40
21787;DHT22;11055;50.870;4.316;2022-09-02T10:37:13;24.80;98.90
21787;DHT22;11055;50.870;4.316;2022-09-02T10:39:50;25.00;98.40
21787;DHT22;11055;50.870;4.316;2022-09-02T10:45:02;25.20;98.20
21787;DHT22;11055;50.870;4.316;2022-09-02T10:47:34;25.30;98.10
21787;DHT22;11055;50.870;4.316;2022-09-02T10:50:07;25.50;98.20
21787;DHT22;11055;50.870;4.316;2022-09-02T10:55:15;25.70;97.10
21787;DHT22;11055;50.870;4.316;2022-09-02T10:57:53;25.90;96.30
21787;DHT22;11055;50.870;4.316;2022-09-02T11:00:23;26.00;96.40
21787;DHT22;11055;50.870;4.316;2022-09-02T11:07:54;26.30;96.60
21787;DHT22;11055;50.870;4.316;2022-09-02T11:10:36;26.40;95.20
21787;DHT22;11055;50.870;4.316;2022-09-02T11:13:04;26.50;94.90
21787;DHT22;11055;50.870;4.316;2022-09-02T11:18:22;26.50;94.00
21787;DHT22;11055;50.870;4.316;2022-09-02T11:21:09;26.70;94.30
21787;DHT22;11055;50.870;4.316;2022-09-02T11:26:09;26.80;93.70
21787;DHT22;11055;50.870;4.316;2022-09-02T11:31:06;26.90;93.90
21787;DHT22;11055;50.870;4.316;2022-09-02T11:36:19;26.90;93.50
21787;DHT22;11055;50.870;4.316;2022-09-02T11:52:16;27.70;91.10
21787;DHT22;11055;50.870;4.316;2022-09-02T11:54:43;27.60;90.50
21787;DHT22;11055;50.870;4.316;2022-09-02T11:57:12;27.40;90.20
21787;DHT22;11055;50.870;4.316;2022-09-02T12:07:54;27.90;89.00
21787;DHT22;11055;50.870;4.316;2022-09-02T12:13:07;27.80;89.10
21787;DHT22;11055;50.870;4.316;2022-09-02T12:15:33;27.80;87.00
21787;DHT22;11055;50.870;4.316;2022-09-02T12:23:07;27.80;87.30
21787;DHT22;11055;50.870;4.316;2022-09-02T12:25:38;28.00;85.30
21787;DHT22;11055;50.870;4.316;2022-09-02T12:28:14;28.00;85.60
21787;DHT22;11055;50.870;4.316;2022-09-02T12:33:30;27.70;84.00
21787;DHT22;11055;50.870;4.316;2022-09-02T12:35:56;27.60;84.90
21787;DHT22;11055;50.870;4.316;2022-09-02T12:38:24;27.60;83.60
21787;DHT22;11055;50.870;4.316;2022-09-02T12:43:27;27.50;84.10
21787;DHT22;11055;50.870;4.316;2022-09-02T12:45:56;27.50;84.10
21787;DHT22;11055;50.870;4.316;2022-09-02T12:48:26;27.70;83.30
21787;DHT22;11055;50.870;4.316;2022-09-02T12:50:58;27.80;81.20
21787;DHT22;11055;50.870;4.316;2022-09-02T12:55:54;28.00;80.90
21787;DHT22;11055;50.870;4.316;2022-09-02T12:58:21;27.90;80.10
21787;DHT22;11055;50.870;4.316;2022-09-02T13:05:55;28.10;79.80
21787;DHT22;11055;50.870;4.316;2022-09-02T13:16:32;28.60;79.40
21787;DHT22;11055;50.870;4.316;2022-09-02T13:24:18;29.00;75.80
21787;DHT22;11055;50.870;4.316;2022-09-02T13:29:28;29.10;73.90
21787;DHT22;11055;50.870;4.316;2022-09-02T13:32:00;29.10;74.70
21787;DHT22;11055;50.870;4.316;2022-09-02T13:34:29;29.00;72.10
21787;DHT22;11055;50.870;4.316;2022-09-02T13:36:55;28.90;70.20
21787;DHT22;11055;50.870;4.316;2022-09-02T13:42:15;29.00;72.80
21787;DHT22;11055;50.870;4.316;2022-09-02T13:44:41;29.00;74.00
21787;DHT22;11055;50.870;4.316;2022-09-02T13:47:14;28.90;71.60
21787;DHT22;11055;50.870;4.316;2022-09-02T13:49:40;28.70;69.80
21787;DHT22;11055;50.870;4.316;2022-09-02T13:52:11;28.70;71.30
21787;DHT22;11055;50.870;4.316;2022-09-02T13:54:37;28.80;71.50
21787;DHT22;11055;50.870;4.316;2022-09-02T13:57:04;28.90;71.30
21787;DHT22;11055;50.870;4.316;2022-09-02T13:59:31;28.90;69.60
21787;DHT22;11055;50.870;4.316;2022-09-02T14:01:57;28.90;73.20
21787;DHT22;11055;50.870;4.316;2022-09-02T14:04:23;28.70;72.70
21787;DHT22;11055;50.870;4.316;2022-09-02T14:06:49;28.50;72.80
21787;DHT22;11055;50.870;4.316;2022-09-02T14:09:25;28.40;71.20
21787;DHT22;11055;50.870;4.316;2022-09-02T14:11:51;28.40;74.90
21787;DHT22;11055;50.870;4.316;2022-09-02T14:14:18;28.30;70.10
21787;DHT22;11055;50.870;4.316;2022-09-02T14:16:45;28.40;71.00
21787;DHT22;11055;50.870;4.316;2022-09-02T14:21:47;28.30;71.10
21787;DHT22;11055;50.870;4.316;2022-09-02T14:24:14;28.30;69.10
21787;DHT22;11055;50.870;4.316;2022-09-02T14:26:42;28.20;69.60
21787;DHT22;11055;50.870;4.316;2022-09-02T14:29:11;28.20;70.40
21787;DHT22;11055;50.870;4.316;2022-09-02T14:31:37;28.20;71.80
21787;DHT22;11055;50.870;4.316;2022-09-02T14:34:02;28.20;73.30
21787;DHT22;11055;50.870;4.316;2022-09-02T14:36:34;28.10;69.50
21787;DHT22;11055;50.870;4.316;2022-09-02T14:41:51;28.20;71.20
21787;DHT22;11055;50.870;4.316;2022-09-02T14:44:25;28.10;69.20
21787;DHT22;11055;50.870;4.316;2022-09-02T14:46:57;27.90;68.20
21787;DHT22;11055;50.870;4.316;2022-09-02T14:49:24;27.80;71.70
21787;DHT22;11055;50.870;4.316;2022-09-02T14:51:52;27.70;71.40
21787;DHT22;11055;50.870;4.316;2022-09-02T14:57:04;27.80;73.20
21787;DHT22;11055;50.870;4.316;2022-09-02T14:59:37;27.90;69.00
21787;DHT22;11055;50.870;4.316;2022-09-02T15:02:02;27.80;74.10
21787;DHT22;11055;50.870;4.316;2022-09-02T15:04:28;27.80;67.20
21787;DHT22;11055;50.870;4.316;2022-09-02T15:06:53;27.80;67.80
21787;DHT22;11055;50.870;4.316;2022-09-02T15:09:20;27.80;69.30
21787;DHT22;11055;50.870;4.316;2022-09-02T15:11:50;27.70;66.20
21787;DHT22;11055;50.870;4.316;2022-09-02T15:14:17;27.80;70.40
21787;DHT22;11055;50.870;4.316;2022-09-02T15:16:43;27.80;71.40
21787;DHT22;11055;50.870;4.316;2022-09-02T15:19:08;27.80;68.70
21787;DHT22;11055;50.870;4.316;2022-09-02T15:21:35;27.80;69.50
21787;DHT22;11055;50.870;4.316;2022-09-02T15:24:03;27.80;71.70
21787;DHT22;11055;50.870;4.316;2022-09-02T15:26:38;27.90;69.90
21787;DHT22;11055;50.870;4.316;2022-09-02T15:29:07;27.80;67.00
21787;DHT22;11055;50.870;4.316;2022-09-02T15:31:35;27.80;69.90
21787;DHT22;11055;50.870;4.316;2022-09-02T15:34:01;27.80;70.40
21787;DHT22;11055;50.870;4.316;2022-09-02T15:36:27;27.80;71.70
21787;DHT22;11055;50.870;4.316;2022-09-02T15:38:52;27.80;69.30
21787;DHT22;11055;50.870;4.316;2022-09-02T15:41:21;27.80;70.80
21787;DHT22;11055;50.870;4.316;2022-09-02T15:43:48;27.80;67.40
21787;DHT22;11055;50.870;4.316;2022-09-02T15:48:52;27.80;70.10
21787;DHT22;11055;50.870;4.316;2022-09-02T15:51:19;27.80;71.50
21787;DHT22;11055;50.870;4.316;2022-09-02T15:53:48;27.80;72.60
21787;DHT22;11055;50.870;4.316;2022-09-02T15:56:21;27.80;74.30
21787;DHT22;11055;50.870;4.316;2022-09-02T15:58:55;27.80;69.60
21787;DHT22;11055;50.870;4.316;2022-09-02T16:01:28;27.70;68.60
21787;DHT22;11055;50.870;4.316;2022-09-02T16:03:56;27.60;70.60
21787;DHT22;11055;50.870;4.316;2022-09-02T16:06:43;27.50;65.60
21787;DHT22;11055;50.870;4.316;2022-09-02T16:09:12;27.60;65.20
21787;DHT22;11055;50.870;4.316;2022-09-02T16:11:45;27.70;71.50
21787;DHT22;11055;50.870;4.316;2022-09-02T16:14:13;27.70;68.90
21787;DHT22;11055;50.870;4.316;2022-09-02T16:16:41;27.60;64.60
21787;DHT22;11055;50.870;4.316;2022-09-02T16:19:07;27.70;69.20
21787;DHT22;11055;50.870;4.316;2022-09-02T16:21:35;27.70;72.40
21787;DHT22;11055;50.870;4.316;2022-09-02T16:24:05;27.70;71.30
21787;DHT22;11055;50.870;4.316;2022-09-02T16:26:36;27.60;69.30
21787;DHT22;11055;50.870;4.316;2022-09-02T16:29:03;27.60;68.90
21787;DHT22;11055;50.870;4.316;2022-09-02T16:31:31;27.60;72.00
21787;DHT22;11055;50.870;4.316;2022-09-02T16:34:01;27.50;73.10
21787;DHT22;11055;50.870;4.316;2022-09-02T16:36:28;27.50;68.40
21787;DHT22;11055;50.870;4.316;2022-09-02T16:38:54;27.50;68.20
21787;DHT22;11055;50.870;4.316;2022-09-02T16:41:21;27.50;67.40
21787;DHT22;11055;50.870;4.316;2022-09-02T16:43:47;27.50;69.70
21787;DHT22;11055;50.870;4.316;2022-09-02T16:46:13;27.50;71.80
21787;DHT22;11055;50.870;4.316;2022-09-02T16:48:38;27.40;69.60
21787;DHT22;11055;50.870;4.316;2022-09-02T16:51:10;27.30;69.70
21787;DHT22;11055;50.870;4.316;2022-09-02T16:53:35;27.20;66.10
21787;DHT22;11055;50.870;4.316;2022-09-02T16:56:01;27.20;67.50
21787;DHT22;11055;50.870;4.316;2022-09-02T16:58:33;27.30;70.40
21787;DHT22;11055;50.870;4.316;2022-09-02T17:00:59;27.30;66.80
21787;DHT22;11055;50.870;4.316;2022-09-02T17:03:29;27.30;66.40
21787;DHT22;11055;50.870;4.316;2022-09-02T17:05:54;27.40;70.10
21787;DHT22;11055;50.870;4.316;2022-09-02T17:08:20;27.40;69.90
21787;DHT22;11055;50.870;4.316;2022-09-02T17:10:45;27.40;71.90
21787;DHT22;11055;50.870;4.316;2022-09-02T17:13:11;27.30;70.50
21787;DHT22;11055;50.870;4.316;2022-09-02T17:15:37;27.30;71.30
21787;DHT22;11055;50.870;4.316;2022-09-02T17:18:03;27.30;73.70
21787;DHT22;11055;50.870;4.316;2022-09-02T17:20:28;27.20;73.00
21787;DHT22;11055;50.870;4.316;2022-09-02T17:22:54;27.20;74.00
21787;DHT22;11055;50.870;4.316;2022-09-02T17:25:20;27.20;73.20
21787;DHT22;11055;50.870;4.316;2022-09-02T17:27:46;27.20;72.70
21787;DHT22;11055;50.870;4.316;2022-09-02T17:30:12;27.10;67.50
21787;DHT22;11055;50.870;4.316;2022-09-02T17:32:39;27.20;70.70
21787;DHT22;11055;50.870;4.316;2022-09-02T17:35:05;27.20;72.50
21787;DHT22;11055;50.870;4.316;2022-09-02T17:37:31;27.20;71.50
21787;DHT22;11055;50.870;4.316;2022-09-02T17:40:00;27.20;72.10
21787;DHT22;11055;50.870;4.316;2022-09-02T17:42:25;27.20;74.10
21787;DHT22;11055;50.870;4.316;2022-09-02T17:44:51;27.20;71.80